createdAt,value
2023-03-01T00:00:24.350Z,10.30
2023-03-01T00:02:50.968Z,10.85
2023-03-01T00:05:17.461Z,11.02
2023-03-01T00:07:43.952Z,11.15
2023-03-01T00:10:11.437Z,13.93
2023-03-01T00:12:37.879Z,12.05
2023-03-01T00:15:04.794Z,12.07
2023-03-01T00:17:31.658Z,10.88
2023-03-01T00:19:58.189Z,11.50
2023-03-01T00:22:24.698Z,11.43
2023-03-01T00:24:51.276Z,10.35
2023-03-01T00:27:17.809Z,13.27
2023-03-01T00:29:44.597Z,13.00
2023-03-01T00:32:11.194Z,12.18
2023-03-01T00:34:37.745Z,10.25
2023-03-01T00:37:04.375Z,9.52
2023-03-01T00:39:30.927Z,11.23
2023-03-01T00:41:57.559Z,12.05
2023-03-01T00:44:24.208Z,11.90
2023-03-01T00:46:50.758Z,10.45
2023-03-01T00:49:17.260Z,9.25
2023-03-01T00:51:43.756Z,12.48
2023-03-01T00:54:10.401Z,10.82
2023-03-01T00:56:36.957Z,11.82
2023-03-01T00:59:03.679Z,13.23
2023-03-01T01:01:31.629Z,12.75
2023-03-01T01:04:07.920Z,11.63
2023-03-01T01:06:41.077Z,13.48
2023-03-01T01:09:08.319Z,12.00
2023-03-01T01:11:35.526Z,12.77
2023-03-01T01:14:02.358Z,12.23
2023-03-01T01:16:30.849Z,12.13
2023-03-01T01:21:25.687Z,10.13
2023-03-01T01:23:52.861Z,12.73
2023-03-01T01:26:31.148Z,11.18
2023-03-01T01:28:58.698Z,11.57
2023-03-01T01:31:26.537Z,10.98
2023-03-01T01:33:54.037Z,11.43
2023-03-01T01:36:20.697Z,13.63
2023-03-01T01:38:47.542Z,11.05
2023-03-01T01:41:15.276Z,11.13
2023-03-01T01:43:44.992Z,11.35
2023-03-01T01:46:32.223Z,11.98
2023-03-01T01:49:06.804Z,12.10
2023-03-01T01:51:41.193Z,12.45
2023-03-01T01:54:13.399Z,12.35
2023-03-01T01:56:45.243Z,12.43
2023-03-01T01:59:12.859Z,12.90
2023-03-01T02:01:39.461Z,12.90
2023-03-01T02:04:06.080Z,12.60
2023-03-01T02:06:38.322Z,11.30
2023-03-01T02:12:07.192Z,11.18
2023-03-01T02:14:34.224Z,11.73
2023-03-01T02:17:00.743Z,11.77
2023-03-01T02:20:08.169Z,10.82
2023-03-01T02:22:38.344Z,12.15
2023-03-01T02:25:16.825Z,12.82
2023-03-01T02:28:09.297Z,12.35
2023-03-01T02:30:35.971Z,12.65
2023-03-01T02:33:04.720Z,11.45
2023-03-01T02:35:36.116Z,12.77
2023-03-01T02:38:04.770Z,12.80
2023-03-01T02:40:32.357Z,10.82
2023-03-01T02:43:00.133Z,12.15
2023-03-01T02:45:28.146Z,10.15
2023-03-01T02:47:55.673Z,11.88
2023-03-01T02:50:31.480Z,12.18
2023-03-01T02:53:06.805Z,13.90
2023-03-01T02:55:33.489Z,12.68
2023-03-01T02:58:03.498Z,12.02
2023-03-01T03:00:37.766Z,9.32
2023-03-01T03:03:04.674Z,12.02
2023-03-01T03:05:32.782Z,12.25
2023-03-01T03:08:01.971Z,10.50
2023-03-01T03:10:37.147Z,13.32
2023-03-01T03:13:07.438Z,13.05
2023-03-01T03:15:34.576Z,10.02
2023-03-01T03:18:01.179Z,13.07
2023-03-01T03:20:29.771Z,12.30
2023-03-01T03:22:58.108Z,13.15
2023-03-01T03:25:26.276Z,13.93
2023-03-01T03:27:54.664Z,11.38
2023-03-01T03:30:21.282Z,10.80
2023-03-01T03:32:49.154Z,10.77
2023-03-01T03:35:15.690Z,9.15
2023-03-01T03:37:42.756Z,13.45
2023-03-01T03:40:10.206Z,12.47
2023-03-01T03:42:36.744Z,12.57
2023-03-01T03:45:03.631Z,13.70
2023-03-01T03:47:30.132Z,11.98
2023-03-01T03:49:56.718Z,12.57
2023-03-01T03:52:23.184Z,11.45
2023-03-01T03:54:49.649Z,11.10
2023-03-01T03:57:16.217Z,11.57
2023-03-01T03:59:42.743Z,11.40
2023-03-01T04:02:09.224Z,12.07
2023-03-01T04:04:35.861Z,11.50
2023-03-01T04:07:02.470Z,11.98
2023-03-01T04:09:28.981Z,10.77
2023-03-01T04:11:55.472Z,11.13
2023-03-01T04:14:22.033Z,12.88
2023-03-01T04:16:48.567Z,10.95
2023-03-01T04:19:15.158Z,11.95
2023-03-01T04:21:41.664Z,12.88
2023-03-01T04:24:08.304Z,11.95
2023-03-01T04:26:34.789Z,10.68
2023-03-01T04:29:01.344Z,14.07
2023-03-01T04:31:27.889Z,11.02
2023-03-01T04:33:56.414Z,10.98
2023-03-01T04:36:26.180Z,11.32
2023-03-01T04:38:53.450Z,13.20
2023-03-01T04:41:22.533Z,12.57
2023-03-01T04:43:49.164Z,12.82
2023-03-01T04:46:18.456Z,12.30
2023-03-01T04:48:46.125Z,11.90
2023-03-01T04:51:12.709Z,11.00
2023-03-01T04:53:39.248Z,9.93
2023-03-01T04:56:06.191Z,14.65
2023-03-01T04:58:33.311Z,11.63
2023-03-01T05:00:59.836Z,13.73
2023-03-01T05:03:26.442Z,14.60
2023-03-01T05:05:53.608Z,12.38
2023-03-01T05:08:20.421Z,10.67
2023-03-01T05:10:52.693Z,11.50
2023-03-01T05:13:21.380Z,12.85
2023-03-01T05:15:58.741Z,11.13
2023-03-01T05:18:26.647Z,13.73
2023-03-01T05:20:54.201Z,14.18
2023-03-01T05:23:20.723Z,12.35
2023-03-01T05:25:47.379Z,14.18
2023-03-01T05:28:14.610Z,11.45
2023-03-01T05:30:41.998Z,12.10
2023-03-01T05:33:08.993Z,10.88
2023-03-01T05:35:35.498Z,12.00
2023-03-01T05:38:02.094Z,12.27
2023-03-01T05:40:28.617Z,12.88
2023-03-01T05:42:57.165Z,12.60
2023-03-01T05:45:25.805Z,15.10
2023-03-01T05:47:52.902Z,12.02
2023-03-01T05:50:32.912Z,12.60
2023-03-01T05:53:01.312Z,9.95
2023-03-01T05:55:29.309Z,14.45
2023-03-01T06:00:22.884Z,11.82
2023-03-01T06:02:49.724Z,12.82
2023-03-01T06:05:16.603Z,12.48
2023-03-01T06:07:43.332Z,13.18
2023-03-01T06:10:11.520Z,13.30
2023-03-01T06:12:40.380Z,14.23
2023-03-01T06:15:12.845Z,14.43
2023-03-01T06:17:41.539Z,12.00
2023-03-01T06:20:12.699Z,14.68
2023-03-01T06:22:40.269Z,12.60
2023-03-01T06:25:10.979Z,12.77
2023-03-01T06:27:37.650Z,13.43
2023-03-01T06:30:04.777Z,12.65
2023-03-01T06:32:31.277Z,15.50
2023-03-01T06:34:57.824Z,13.88
2023-03-01T06:37:24.326Z,15.30
2023-03-01T06:39:50.877Z,14.38
2023-03-01T06:42:17.591Z,13.43
2023-03-01T06:44:45.400Z,14.10
2023-03-01T06:47:11.958Z,12.70
2023-03-01T06:49:38.607Z,14.23
2023-03-01T06:52:05.466Z,11.43
2023-03-01T06:54:32.149Z,15.18
2023-03-01T06:56:58.743Z,11.98
2023-03-01T06:59:25.218Z,12.50
2023-03-01T07:01:51.800Z,14.77
2023-03-01T07:04:18.394Z,11.95
2023-03-01T07:06:44.949Z,11.68
2023-03-01T07:09:11.649Z,16.25
2023-03-01T07:11:38.250Z,15.65
2023-03-01T07:14:04.785Z,13.90
2023-03-01T07:16:31.705Z,14.32
2023-03-01T07:18:59.816Z,14.43
2023-03-01T07:23:52.998Z,14.30
2023-03-01T07:26:19.606Z,11.35
2023-03-01T07:28:46.124Z,13.23
2023-03-01T07:31:12.692Z,16.70
2023-03-01T07:33:39.294Z,14.60
2023-03-01T07:36:06.609Z,14.88
2023-03-01T07:38:33.272Z,15.38
2023-03-01T07:41:04.502Z,13.60
2023-03-01T07:43:31.555Z,15.23
2023-03-01T07:46:02.072Z,14.98
2023-03-01T07:48:29.488Z,14.07
2023-03-01T07:50:59.230Z,14.35
2023-03-01T07:53:25.822Z,12.73
2023-03-01T07:56:05.333Z,15.70
2023-03-01T07:58:32.245Z,14.32
2023-03-01T08:01:02.839Z,13.93
2023-03-01T08:03:29.669Z,14.25
2023-03-01T08:05:56.309Z,16.67
2023-03-01T08:08:22.889Z,12.25
2023-03-01T08:10:49.361Z,14.30
2023-03-01T08:13:15.909Z,14.55
2023-03-01T08:15:42.493Z,16.58
2023-03-01T08:18:09.015Z,14.48
2023-03-01T08:20:35.516Z,16.05
2023-03-01T08:23:02.054Z,15.27
2023-03-01T08:25:28.610Z,14.73
2023-03-01T08:27:55.184Z,15.57
2023-03-01T08:30:21.804Z,16.13
2023-03-01T08:32:48.451Z,16.52
2023-03-01T08:35:15.167Z,13.02
2023-03-01T08:37:41.720Z,15.05
2023-03-01T08:40:09.146Z,14.77
2023-03-01T08:42:35.641Z,14.32
2023-03-01T08:45:02.351Z,14.98
2023-03-01T08:47:28.989Z,14.05
2023-03-01T08:49:55.524Z,12.25
2023-03-01T08:52:22.296Z,15.45
2023-03-01T08:54:49.462Z,13.95
2023-03-01T08:57:15.991Z,14.73
2023-03-01T08:59:42.656Z,14.75
2023-03-01T09:02:14.207Z,15.32
2023-03-01T09:04:41.462Z,13.85
2023-03-01T09:07:08.629Z,15.43
2023-03-01T09:09:35.902Z,16.35
2023-03-01T09:12:03.058Z,14.27
2023-03-01T09:14:29.649Z,14.25
2023-03-01T09:16:56.332Z,15.48
2023-03-01T09:19:25.666Z,13.93
2023-03-01T09:21:52.848Z,15.65
2023-03-01T09:24:21.768Z,12.60
2023-03-01T09:26:50.644Z,12.57
2023-03-01T09:29:18.269Z,14.43
2023-03-01T09:31:44.819Z,16.33
2023-03-01T09:34:11.438Z,14.50
2023-03-01T09:36:38.328Z,15.02
2023-03-01T09:39:05.793Z,14.02
2023-03-01T09:41:37.774Z,13.43
2023-03-01T09:44:32.850Z,15.43
2023-03-01T09:47:00.306Z,15.55
2023-03-01T09:49:32.960Z,14.73
2023-03-01T09:52:18.145Z,15.32
2023-03-01T09:54:44.753Z,12.85
2023-03-01T09:57:19.921Z,14.88
2023-03-01T10:00:00.697Z,14.88
2023-03-01T10:02:39.420Z,11.35
2023-03-01T10:05:27.610Z,13.85
2023-03-01T10:07:59.198Z,13.23
2023-03-01T10:10:38.548Z,13.90
2023-03-01T10:13:17.799Z,12.68
2023-03-01T10:15:51.334Z,12.85
2023-03-01T10:18:22.311Z,13.07
2023-03-01T10:21:20.309Z,13.88
2023-03-01T10:23:50.606Z,13.25
2023-03-01T10:26:34.941Z,14.77
2023-03-01T10:29:08.450Z,15.05
2023-03-01T10:31:45.522Z,16.15
2023-03-01T10:34:17.087Z,14.07
2023-03-01T10:36:45.560Z,16.10
2023-03-01T10:39:18.755Z,16.25
2023-03-01T10:42:07.152Z,15.10
2023-03-01T10:44:42.852Z,15.57
2023-03-01T10:47:25.268Z,15.20
2023-03-01T10:50:03.905Z,16.98
2023-03-01T10:52:34.407Z,17.90
2023-03-01T10:55:25.520Z,15.40
2023-03-01T10:58:07.699Z,18.35
2023-03-01T11:00:34.538Z,17.30
2023-03-01T11:03:23.607Z,15.50
2023-03-01T11:05:57.098Z,14.77
2023-03-01T11:08:40.464Z,15.02
2023-03-01T11:11:25.361Z,14.13
2023-03-01T11:13:58.601Z,16.60
2023-03-01T11:16:32.771Z,17.20
2023-03-01T11:19:09.688Z,14.10
2023-03-01T11:21:44.192Z,13.90
2023-03-01T11:24:15.286Z,16.55
2023-03-01T11:26:46.811Z,15.38
2023-03-01T11:29:37.234Z,15.25
2023-03-01T11:32:10.009Z,14.38
2023-03-01T11:35:08.576Z,16.75
2023-03-01T11:38:00.491Z,16.50
2023-03-01T11:40:29.157Z,15.27
2023-03-01T11:43:37.875Z,17.33
2023-03-01T11:46:32.608Z,15.27
2023-03-01T11:49:05.112Z,14.82
2023-03-01T11:51:51.194Z,16.50
2023-03-01T11:54:58.425Z,16.48
2023-03-01T11:57:46.177Z,14.55
2023-03-01T12:03:11.516Z,15.23
2023-03-01T12:06:08.097Z,12.55
2023-03-01T12:08:41.143Z,16.00
2023-03-01T12:11:19.271Z,13.52
2023-03-01T12:13:51.718Z,15.48
2023-03-01T12:16:40.101Z,14.45
2023-03-01T12:19:21.648Z,15.73
2023-03-01T12:21:57.624Z,14.25
2023-03-01T12:24:30.250Z,17.08
2023-03-01T12:26:56.757Z,16.60
2023-03-01T12:29:35.398Z,14.52
2023-03-01T12:32:35.396Z,14.75
2023-03-01T12:36:00.154Z,15.90
2023-03-01T12:38:42.793Z,14.98
2023-03-01T12:41:23.905Z,15.95
2023-03-01T12:43:56.301Z,15.98
2023-03-01T12:47:10.536Z,16.27
2023-03-01T12:49:53.226Z,16.52
2023-03-01T12:52:34.044Z,13.65
2023-03-01T12:55:04.951Z,15.23
2023-03-01T12:57:39.895Z,15.45
2023-03-01T13:00:36.950Z,14.65
2023-03-01T13:03:11.709Z,16.08
2023-03-01T13:06:03.073Z,16.52
2023-03-01T13:08:59.945Z,16.90
2023-03-01T13:11:26.481Z,15.77
2023-03-01T13:13:53.026Z,16.23
2023-03-01T13:16:31.545Z,15.85
2023-03-01T13:19:13.742Z,18.55
2023-03-01T13:21:40.311Z,15.63
2023-03-01T13:24:28.744Z,15.20
2023-03-01T13:27:18.420Z,17.77
2023-03-01T13:29:46.358Z,16.20
2023-03-01T13:32:43.058Z,17.75
2023-03-01T13:38:38.256Z,16.58
2023-03-01T13:41:05.681Z,19.17
2023-03-01T13:43:52.512Z,17.43
2023-03-01T13:46:24.770Z,16.38
2023-03-01T13:48:54.633Z,16.60
2023-03-01T13:51:25.952Z,17.00
2023-03-01T13:53:54.902Z,16.55
2023-03-01T13:56:37.817Z,17.77
2023-03-01T13:59:15.706Z,19.20
2023-03-01T14:04:25.027Z,16.08
2023-03-01T14:06:51.618Z,15.48
2023-03-01T14:09:25.972Z,14.68
2023-03-01T14:12:03.241Z,15.25
2023-03-01T14:14:46.870Z,16.10
2023-03-01T14:17:38.788Z,17.58
2023-03-01T14:20:23.575Z,14.80
2023-03-01T14:22:54.531Z,15.57
2023-03-01T14:25:22.869Z,15.50
2023-03-01T14:27:57.701Z,14.15
2023-03-01T14:30:33.803Z,15.35
2023-03-01T14:33:04.154Z,14.98
2023-03-01T14:35:36.795Z,15.52
2023-03-01T14:38:04.479Z,15.15
2023-03-01T14:40:36.848Z,12.57
2023-03-01T14:43:13.133Z,16.45
2023-03-01T14:45:40.036Z,16.17
2023-03-01T14:48:08.298Z,13.32
2023-03-01T14:50:41.057Z,16.15
2023-03-01T14:53:14.762Z,14.18
2023-03-01T14:55:45.512Z,15.63
2023-03-01T14:58:16.758Z,14.80
2023-03-01T15:00:53.454Z,16.33
2023-03-01T15:03:45.312Z,16.52
2023-03-01T15:06:16.862Z,15.25
2023-03-01T15:08:48.204Z,14.48
2023-03-01T15:11:14.640Z,15.00
2023-03-01T15:13:41.931Z,13.38
2023-03-01T15:16:24.806Z,13.73
2023-03-01T15:19:06.848Z,12.52
2023-03-01T15:21:35.848Z,15.73
2023-03-01T15:24:11.709Z,14.02
2023-03-01T15:26:44.244Z,12.93
2023-03-01T15:29:19.471Z,12.38
2023-03-01T15:31:56.636Z,12.18
2023-03-01T15:34:31.875Z,13.50
2023-03-01T15:37:00.375Z,16.20
2023-03-01T15:39:32.650Z,14.07
2023-03-01T15:42:00.112Z,15.75
2023-03-01T15:44:41.600Z,14.57
2023-03-01T15:47:24.886Z,11.70
2023-03-01T15:49:55.641Z,13.25
2023-03-01T15:52:28.818Z,14.50
2023-03-01T15:55:16.622Z,11.90
2023-03-01T16:00:14.057Z,13.32
2023-03-01T16:02:42.428Z,13.85
2023-03-01T16:05:20.735Z,14.52
2023-03-01T16:07:47.263Z,13.93
2023-03-01T16:10:13.930Z,12.15
2023-03-01T16:12:40.420Z,12.55
2023-03-01T16:15:17.515Z,12.20
2023-03-01T16:17:44.152Z,12.55
2023-03-01T16:20:19.633Z,13.23
2023-03-01T16:22:49.826Z,12.45
2023-03-01T16:25:18.497Z,11.93
2023-03-01T16:27:50.585Z,10.60
2023-03-01T16:30:19.974Z,11.45
2023-03-01T16:32:48.039Z,11.77
2023-03-01T16:35:17.443Z,12.95
2023-03-01T16:37:44.465Z,14.35
2023-03-01T16:40:25.185Z,15.70
2023-03-01T16:42:51.993Z,17.05
2023-03-01T16:45:24.633Z,15.18
2023-03-01T16:47:54.402Z,14.38
2023-03-01T16:50:22.074Z,14.18
2023-03-01T16:52:48.533Z,14.50
2023-03-01T16:55:15.307Z,17.02
2023-03-01T16:57:41.938Z,14.68
2023-03-01T17:00:10.892Z,15.38
2023-03-01T17:02:38.104Z,14.90
2023-03-01T17:05:05.792Z,14.13
2023-03-01T17:07:34.994Z,14.52
2023-03-01T17:10:02.703Z,13.85
2023-03-01T17:12:29.332Z,16.48
2023-03-01T17:14:55.893Z,14.15
2023-03-01T17:17:22.818Z,13.73
2023-03-01T17:19:49.442Z,14.32
2023-03-01T17:22:16.706Z,14.35
2023-03-01T17:24:44.270Z,15.63
2023-03-01T17:27:12.316Z,14.15
2023-03-01T17:32:06.787Z,14.30
2023-03-01T17:34:34.522Z,15.05
2023-03-01T17:37:01.289Z,14.20
2023-03-01T17:39:28.368Z,13.73
2023-03-01T17:41:55.487Z,14.68
2023-03-01T17:44:22.089Z,14.75
2023-03-01T17:46:48.800Z,14.15
2023-03-01T17:49:15.416Z,16.77
2023-03-01T17:51:41.938Z,16.33
2023-03-01T17:54:08.553Z,15.77
2023-03-01T17:56:35.038Z,14.82
2023-03-01T17:59:01.545Z,16.35
2023-03-01T18:01:28.184Z,16.25
2023-03-01T18:03:54.915Z,15.43
2023-03-01T18:06:24.060Z,14.77
2023-03-01T18:08:51.170Z,16.10
2023-03-01T18:11:19.229Z,14.05
2023-03-01T18:16:17.329Z,13.82
2023-03-01T18:18:44.234Z,13.95
2023-03-01T18:21:11.290Z,14.15
2023-03-01T18:23:37.986Z,15.40
2023-03-01T18:26:12.108Z,13.23
2023-03-01T18:28:39.158Z,15.15
2023-03-01T18:31:08.368Z,13.98
2023-03-01T18:33:35.470Z,15.13
2023-03-01T18:36:02.308Z,14.30
2023-03-01T18:38:29.188Z,13.20
2023-03-01T18:40:56.455Z,15.95
2023-03-01T18:43:24.204Z,13.63
2023-03-01T18:45:56.694Z,14.85
2023-03-01T18:48:23.219Z,15.13
2023-03-01T18:50:49.906Z,14.77
2023-03-01T18:53:16.465Z,14.90
2023-03-01T18:55:42.932Z,17.35
2023-03-01T18:58:10.550Z,17.17
2023-03-01T19:00:37.224Z,15.15
2023-03-01T19:03:04.027Z,18.02
2023-03-01T19:05:31.252Z,15.57
2023-03-01T19:08:00.151Z,12.53
2023-03-01T19:10:26.790Z,15.25
2023-03-01T19:12:54.065Z,16.35
2023-03-01T19:15:21.110Z,13.52
2023-03-01T19:17:47.660Z,15.82
2023-03-01T19:20:14.299Z,14.43
2023-03-01T19:22:40.829Z,14.05
2023-03-01T19:25:07.837Z,14.45
2023-03-01T19:27:34.326Z,14.95
2023-03-01T19:30:00.985Z,15.77
2023-03-01T19:32:27.577Z,13.30
2023-03-01T19:34:54.121Z,13.85
2023-03-01T19:37:20.642Z,15.85
2023-03-01T19:39:47.142Z,14.82
2023-03-01T19:42:14.185Z,15.27
2023-03-01T19:44:40.664Z,14.27
2023-03-01T19:47:07.210Z,14.82
2023-03-01T19:49:33.850Z,15.48
2023-03-01T19:52:00.310Z,19.15
2023-03-01T19:54:26.859Z,21.48
2023-03-01T19:56:53.333Z,17.95
2023-03-01T19:59:19.883Z,15.43
2023-03-01T20:01:46.410Z,13.63
2023-03-01T20:04:12.930Z,15.48
2023-03-01T20:06:40.201Z,13.65
2023-03-01T20:09:20.332Z,15.23
2023-03-01T20:11:47.582Z,17.30
2023-03-01T20:14:14.170Z,16.00
2023-03-01T20:16:41.337Z,17.45
2023-03-01T20:19:08.070Z,16.07
2023-03-01T20:21:34.634Z,17.45
2023-03-01T20:24:01.976Z,16.83
2023-03-01T20:26:28.672Z,17.17
2023-03-01T20:28:56.492Z,15.55
2023-03-01T20:31:24.709Z,15.55
2023-03-01T20:33:51.317Z,15.15
2023-03-01T20:36:17.889Z,16.30
2023-03-01T20:38:44.388Z,14.93
2023-03-01T20:41:13.072Z,15.55
2023-03-01T20:43:41.807Z,13.23
2023-03-01T20:46:11.174Z,16.25
2023-03-01T20:48:37.795Z,13.57
2023-03-01T20:51:08.526Z,15.55
2023-03-01T20:53:35.319Z,12.85
2023-03-01T20:56:07.018Z,12.02
2023-03-01T20:58:33.640Z,12.07
2023-03-01T21:01:00.322Z,13.20
2023-03-01T21:03:27.630Z,12.00
2023-03-01T21:05:58.101Z,11.02
2023-03-01T21:08:25.122Z,14.38
2023-03-01T21:10:56.456Z,13.18
2023-03-01T21:13:24.536Z,11.52
2023-03-01T21:18:29.014Z,12.93
2023-03-01T21:21:08.622Z,12.90
2023-03-01T21:23:37.308Z,11.05
2023-03-01T21:26:12.363Z,12.02
2023-03-01T21:28:40.429Z,12.40
2023-03-01T21:33:39.458Z,10.43
2023-03-01T21:36:15.121Z,9.18
2023-03-01T21:38:45.063Z,8.90
2023-03-01T21:41:35.334Z,10.90
2023-03-01T21:44:04.581Z,10.43
2023-03-01T21:46:35.418Z,8.90
2023-03-01T21:49:06.336Z,9.70
2023-03-01T21:51:33.230Z,10.63
2023-03-01T21:54:00.424Z,10.65
2023-03-01T21:56:28.942Z,9.82
2023-03-01T21:58:57.240Z,11.07
2023-03-01T22:01:25.310Z,11.00
2023-03-01T22:06:21.665Z,9.88
2023-03-01T22:08:51.819Z,10.90
2023-03-01T22:11:20.038Z,10.07
2023-03-01T22:18:41.811Z,9.43
2023-03-01T22:21:14.903Z,8.93
2023-03-01T22:23:48.093Z,10.25
2023-03-01T22:26:28.871Z,9.23
2023-03-01T22:29:01.357Z,10.25
2023-03-01T22:31:31.757Z,8.70
2023-03-01T22:34:02.387Z,9.38
2023-03-01T22:36:30.374Z,7.45
2023-03-01T22:41:25.791Z,11.25
2023-03-01T22:43:56.243Z,11.55
2023-03-01T22:46:27.498Z,9.18
2023-03-01T22:48:55.760Z,9.73
2023-03-01T22:53:51.638Z,10.25
2023-03-01T22:56:22.346Z,10.35
2023-03-01T22:58:55.714Z,9.73
2023-03-01T23:01:25.146Z,9.85
2023-03-01T23:03:52.085Z,12.40
2023-03-01T23:06:20.720Z,13.52
2023-03-01T23:08:56.012Z,11.68
2023-03-01T23:11:24.812Z,9.73
2023-03-01T23:13:52.134Z,10.07
2023-03-01T23:16:19.137Z,9.05
2023-03-01T23:18:46.008Z,9.85
2023-03-01T23:21:20.872Z,9.43
2023-03-01T23:23:48.805Z,10.45
2023-03-01T23:28:45.155Z,9.82
2023-03-01T23:31:15.486Z,11.23
2023-03-01T23:33:49.473Z,11.50
2023-03-01T23:36:26.020Z,10.55
2023-03-01T23:39:01.855Z,9.95
2023-03-01T23:41:30.811Z,10.68
2023-03-01T23:44:00.092Z,8.88
2023-03-01T23:46:43.444Z,9.80
2023-03-01T23:49:17.358Z,9.48
2023-03-01T23:51:45.631Z,9.73
2023-03-01T23:54:19.415Z,10.15
2023-03-01T23:56:47.292Z,9.50
2023-03-01T23:59:19.682Z,9.73
